createdAt,value
2024-01-03T00:00:17.064Z,80.01
2024-01-03T00:02:44.964Z,80.10
2024-01-03T00:05:12.711Z,80.07
2024-01-03T00:07:41.572Z,80.16
2024-01-03T00:10:09.143Z,80.07
2024-01-03T00:12:36.894Z,80.13
2024-01-03T00:15:05.707Z,80.20
2024-01-03T00:17:33.437Z,80.28
2024-01-03T00:20:01.210Z,80.28
2024-01-03T00:22:34.070Z,80.46
2024-01-03T00:25:06.267Z,80.44
2024-01-03T00:27:33.925Z,80.48
2024-01-03T00:30:01.585Z,80.44
2024-01-03T00:32:30.638Z,80.47
2024-01-03T00:34:58.502Z,80.50
2024-01-03T00:37:26.208Z,80.56
2024-01-03T00:39:55.119Z,80.57
2024-01-03T00:42:22.756Z,80.51
2024-01-03T00:44:50.434Z,80.46
2024-01-03T00:47:19.426Z,80.47
2024-01-03T00:49:47.006Z,80.60
2024-01-03T00:52:14.738Z,80.41
2024-01-03T00:54:43.652Z,80.47
2024-01-03T00:57:11.298Z,80.43
2024-01-03T00:59:39.013Z,80.38
2024-01-03T01:02:07.952Z,80.49
2024-01-03T01:04:35.604Z,80.53
2024-01-03T01:07:03.181Z,80.67
2024-01-03T01:09:32.060Z,80.67
2024-01-03T01:11:59.645Z,80.64
2024-01-03T01:14:27.389Z,80.61
2024-01-03T01:16:56.264Z,80.54
2024-01-03T01:19:23.899Z,80.59
2024-01-03T01:21:51.705Z,80.64
2024-01-03T01:24:21.817Z,80.62
2024-01-03T01:26:49.509Z,80.59
2024-01-03T01:29:17.051Z,80.57
2024-01-03T01:31:45.924Z,80.52
2024-01-03T01:34:13.666Z,80.44
2024-01-03T01:36:41.454Z,80.41
2024-01-03T01:39:10.442Z,80.51
2024-01-03T01:41:38.067Z,80.44
2024-01-03T01:44:06.087Z,80.33
2024-01-03T01:46:34.967Z,80.34
2024-01-03T01:49:02.661Z,80.37
2024-01-03T01:51:30.303Z,80.28
2024-01-03T01:53:59.015Z,80.26
2024-01-03T01:56:26.641Z,80.26
2024-01-03T01:58:54.089Z,80.29
2024-01-03T02:01:22.899Z,80.43
2024-01-03T02:03:50.489Z,80.36
2024-01-03T02:06:18.162Z,80.25
2024-01-03T02:08:47.472Z,80.20
2024-01-03T02:11:15.146Z,80.26
2024-01-03T02:13:42.827Z,80.27
2024-01-03T02:16:15.055Z,80.34
2024-01-03T02:18:43.785Z,80.34
2024-01-03T02:21:12.782Z,80.26
2024-01-03T02:23:40.460Z,80.23
2024-01-03T02:26:17.598Z,80.23
2024-01-03T02:28:54.614Z,80.19
2024-01-03T02:31:22.161Z,80.16
2024-01-03T02:33:49.828Z,80.19
2024-01-03T02:36:18.834Z,80.15
2024-01-03T02:38:46.426Z,80.05
2024-01-03T02:41:13.951Z,80.05
2024-01-03T02:43:42.819Z,79.95
2024-01-03T02:46:10.389Z,79.91
2024-01-03T02:48:38.066Z,79.98
2024-01-03T02:51:06.934Z,79.87
2024-01-03T02:53:34.938Z,79.88
2024-01-03T02:56:02.692Z,79.85
2024-01-03T02:58:31.551Z,79.81
2024-01-03T03:00:59.147Z,79.79
2024-01-03T03:03:26.805Z,79.80
2024-01-03T03:05:55.783Z,79.76
2024-01-03T03:08:23.482Z,79.74
2024-01-03T03:10:51.091Z,79.74
2024-01-03T03:13:20.181Z,79.67
2024-01-03T03:15:47.851Z,79.66
2024-01-03T03:18:15.698Z,79.65
2024-01-03T03:20:44.933Z,79.64
2024-01-03T03:23:12.599Z,79.63
2024-01-03T03:25:40.248Z,79.65
2024-01-03T03:28:09.505Z,79.60
2024-01-03T03:30:38.207Z,79.59
2024-01-03T03:33:08.222Z,79.58
2024-01-03T03:35:36.020Z,79.57
2024-01-03T03:38:03.561Z,79.60
2024-01-03T03:40:32.470Z,79.62
2024-01-03T03:43:00.018Z,79.61
2024-01-03T03:45:27.682Z,79.57
2024-01-03T03:47:56.536Z,79.55
2024-01-03T03:50:24.256Z,79.69
2024-01-03T03:52:51.894Z,79.85
2024-01-03T03:55:20.785Z,79.95
2024-01-03T03:57:48.343Z,80.05
2024-01-03T04:00:15.891Z,80.14
2024-01-03T04:02:44.816Z,80.14
2024-01-03T04:05:12.695Z,80.16
2024-01-03T04:07:40.321Z,80.20
2024-01-03T04:10:09.118Z,80.15
2024-01-03T04:12:36.772Z,80.14
2024-01-03T04:15:04.400Z,80.08
2024-01-03T04:17:33.380Z,80.08
2024-01-03T04:20:01.083Z,80.08
2024-01-03T04:22:28.739Z,80.11
2024-01-03T04:24:57.534Z,80.13
2024-01-03T04:27:25.106Z,80.11
2024-01-03T04:29:52.774Z,80.10
2024-01-03T04:32:21.800Z,80.10
2024-01-03T04:34:49.731Z,80.11
2024-01-03T04:37:17.402Z,80.06
2024-01-03T04:39:46.173Z,80.05
2024-01-03T04:42:13.828Z,80.03
2024-01-03T04:44:41.424Z,80.01
2024-01-03T04:47:10.372Z,79.96
2024-01-03T04:49:38.068Z,79.88
2024-01-03T04:52:05.702Z,79.87
2024-01-03T04:54:34.927Z,79.87
2024-01-03T04:57:02.548Z,79.93
2024-01-03T04:59:30.271Z,79.96
2024-01-03T05:01:59.119Z,79.97
2024-01-03T05:04:26.781Z,79.95
2024-01-03T05:06:54.436Z,79.89
2024-01-03T05:09:23.222Z,79.84
2024-01-03T05:11:51.057Z,79.74
2024-01-03T05:14:19.107Z,79.75
2024-01-03T05:16:47.945Z,79.68
2024-01-03T05:19:15.880Z,79.59
2024-01-03T05:21:43.690Z,79.49
2024-01-03T05:24:13.395Z,79.41
2024-01-03T05:26:41.199Z,79.37
2024-01-03T05:29:11.161Z,79.46
2024-01-03T05:31:38.822Z,79.59
2024-01-03T05:34:06.296Z,79.73
2024-01-03T05:36:35.284Z,79.81
2024-01-03T05:39:03.196Z,79.91
2024-01-03T05:41:31.072Z,79.88
2024-01-03T05:43:59.830Z,79.93
2024-01-03T05:46:27.369Z,79.88
2024-01-03T05:48:55.211Z,79.85
2024-01-03T05:51:24.118Z,79.75
2024-01-03T05:53:51.841Z,79.72
2024-01-03T05:56:19.626Z,79.70
2024-01-03T05:58:48.549Z,79.71
2024-01-03T06:01:16.420Z,79.67
2024-01-03T06:03:44.085Z,79.70
2024-01-03T06:06:13.156Z,79.65
2024-01-03T06:08:41.015Z,79.72
2024-01-03T06:11:08.686Z,79.75
2024-01-03T06:13:37.580Z,79.73
2024-01-03T06:16:05.141Z,79.77
2024-01-03T06:18:32.899Z,79.80
2024-01-03T06:21:01.914Z,79.81
2024-01-03T06:23:29.981Z,79.86
2024-01-03T06:25:57.629Z,79.92
2024-01-03T06:28:26.411Z,79.91
2024-01-03T06:30:54.113Z,79.88
2024-01-03T06:33:22.004Z,79.87
2024-01-03T06:35:51.059Z,79.93
2024-01-03T06:38:18.710Z,79.88
2024-01-03T06:40:46.353Z,79.93
2024-01-03T06:43:15.552Z,79.99
2024-01-03T06:45:43.214Z,79.89
2024-01-03T06:48:11.223Z,79.89
2024-01-03T06:50:40.564Z,79.94
2024-01-03T06:53:08.361Z,79.89
2024-01-03T06:55:36.014Z,79.85
2024-01-03T06:58:04.809Z,79.86
2024-01-03T07:00:32.462Z,79.74
2024-01-03T07:03:00.108Z,79.64
2024-01-03T07:05:29.214Z,79.55
2024-01-03T07:07:56.980Z,79.46
2024-01-03T07:10:24.638Z,79.43
2024-01-03T07:12:53.431Z,79.43
2024-01-03T07:15:21.090Z,79.48
2024-01-03T07:17:48.752Z,79.44
2024-01-03T07:20:17.700Z,79.41
2024-01-03T07:22:45.300Z,79.35
2024-01-03T07:25:13.262Z,79.29
2024-01-03T07:27:42.158Z,79.20
2024-01-03T07:30:09.837Z,79.19
2024-01-03T07:32:37.743Z,79.15
2024-01-03T07:35:06.679Z,79.02
2024-01-03T07:37:34.344Z,79.02
2024-01-03T07:40:01.938Z,79.02
2024-01-03T07:42:30.898Z,78.91
2024-01-03T07:44:58.857Z,78.86
2024-01-03T07:47:26.692Z,78.76
2024-01-03T07:49:55.781Z,78.65
2024-01-03T07:52:25.649Z,78.60
2024-01-03T07:54:56.072Z,78.55
2024-01-03T07:57:23.738Z,78.34
2024-01-03T07:59:51.391Z,78.24
2024-01-03T08:02:20.461Z,78.28
2024-01-03T08:04:48.554Z,78.22
2024-01-03T08:07:16.215Z,78.03
2024-01-03T08:09:45.012Z,78.01
2024-01-03T08:12:12.577Z,77.94
2024-01-03T08:14:40.260Z,77.85
2024-01-03T08:17:09.220Z,77.73
2024-01-03T08:19:37.017Z,77.65
2024-01-03T08:22:04.749Z,77.55
2024-01-03T08:24:33.971Z,77.40
2024-01-03T08:27:01.992Z,77.24
2024-01-03T08:29:29.808Z,77.03
2024-01-03T08:31:58.682Z,76.78
2024-01-03T08:34:26.377Z,76.72
2024-01-03T08:36:54.011Z,76.47
2024-01-03T08:39:22.784Z,76.35
2024-01-03T08:41:50.431Z,76.09
2024-01-03T08:44:18.233Z,76.08
2024-01-03T08:46:47.408Z,75.84
2024-01-03T08:49:15.270Z,75.92
2024-01-03T08:51:43.157Z,75.72
2024-01-03T08:54:12.143Z,75.75
2024-01-03T08:56:39.747Z,75.75
2024-01-03T08:59:07.462Z,75.66
2024-01-03T09:01:36.372Z,75.53
2024-01-03T09:04:03.981Z,75.70
2024-01-03T09:06:31.828Z,75.58
2024-01-03T09:09:01.283Z,75.32
2024-01-03T09:11:29.047Z,75.25
2024-01-03T09:13:59.099Z,74.96
2024-01-03T09:16:26.930Z,74.86
2024-01-03T09:18:54.895Z,74.66
2024-01-03T09:21:24.255Z,74.57
2024-01-03T09:23:52.046Z,74.44
2024-01-03T09:26:19.754Z,74.53
2024-01-03T09:28:48.717Z,74.39
2024-01-03T09:31:16.393Z,74.48
2024-01-03T09:33:44.329Z,74.31
2024-01-03T09:36:13.470Z,74.45
2024-01-03T09:38:41.150Z,74.36
2024-01-03T09:41:08.853Z,74.13
2024-01-03T09:43:37.753Z,74.26
2024-01-03T09:46:05.307Z,73.82
2024-01-03T09:48:33.097Z,73.44
2024-01-03T09:51:02.000Z,73.24
2024-01-03T09:53:29.749Z,72.84
2024-01-03T09:55:57.211Z,72.57
2024-01-03T09:58:26.087Z,72.19
2024-01-03T10:00:53.795Z,71.88
2024-01-03T10:03:21.750Z,71.74
2024-01-03T10:05:50.795Z,71.76
2024-01-03T10:08:18.799Z,71.29
2024-01-03T10:10:46.738Z,71.26
2024-01-03T10:13:15.628Z,71.14
2024-01-03T10:15:43.183Z,71.15
2024-01-03T10:18:14.741Z,70.42
2024-01-03T10:20:45.611Z,70.63
2024-01-03T10:23:13.345Z,70.42
2024-01-03T10:25:41.009Z,70.17
2024-01-03T10:28:10.228Z,70.21
2024-01-03T10:30:38.118Z,70.41
2024-01-03T10:33:08.225Z,70.41
2024-01-03T10:35:36.109Z,70.03
2024-01-03T10:38:03.815Z,69.91
2024-01-03T10:40:33.021Z,69.60
2024-01-03T10:43:00.589Z,69.41
2024-01-03T10:45:28.273Z,69.22
2024-01-03T10:47:57.267Z,69.11
2024-01-03T10:50:25.024Z,69.15
2024-01-03T10:52:52.549Z,68.63
2024-01-03T10:55:21.428Z,68.20
2024-01-03T10:57:49.316Z,67.72
2024-01-03T11:00:16.968Z,67.44
2024-01-03T11:02:45.778Z,67.39
2024-01-03T11:05:13.460Z,67.48
2024-01-03T11:07:41.077Z,67.28
2024-01-03T11:10:09.969Z,66.60
2024-01-03T11:12:37.602Z,66.60
2024-01-03T11:15:05.430Z,66.56
2024-01-03T11:17:34.664Z,66.38
2024-01-03T11:20:02.867Z,65.83
2024-01-03T11:22:30.532Z,66.44
2024-01-03T11:24:59.308Z,66.36
2024-01-03T11:27:27.162Z,66.31
2024-01-03T11:29:55.084Z,66.00
2024-01-03T11:32:24.225Z,65.31
2024-01-03T11:34:52.101Z,65.69
2024-01-03T11:37:20.470Z,65.57
2024-01-03T11:39:52.685Z,65.26
2024-01-03T11:42:20.322Z,65.60
2024-01-03T11:44:47.934Z,65.46
2024-01-03T11:47:16.868Z,65.03
2024-01-03T11:49:44.507Z,65.22
2024-01-03T11:52:12.193Z,65.28
2024-01-03T11:54:40.984Z,65.41
2024-01-03T11:57:08.780Z,65.62
2024-01-03T11:59:36.863Z,65.29
2024-01-03T12:02:05.700Z,65.24
2024-01-03T12:04:33.280Z,64.85
2024-01-03T12:07:01.047Z,64.97
2024-01-03T12:09:30.028Z,64.98
2024-01-03T12:11:57.860Z,65.05
2024-01-03T12:14:25.685Z,64.87
2024-01-03T12:16:54.660Z,64.98
2024-01-03T12:19:22.374Z,64.93
2024-01-03T12:21:50.484Z,65.11
2024-01-03T12:24:19.259Z,65.52
2024-01-03T12:26:47.004Z,64.94
2024-01-03T12:29:14.687Z,64.84
2024-01-03T12:31:43.598Z,64.81
2024-01-03T12:34:11.381Z,64.65
2024-01-03T12:36:39.219Z,64.56
2024-01-03T12:39:08.264Z,64.96
2024-01-03T12:41:36.012Z,64.75
2024-01-03T12:44:03.653Z,64.55
2024-01-03T12:46:32.533Z,64.72
2024-01-03T12:49:00.237Z,64.19
2024-01-03T12:51:33.349Z,64.34
2024-01-03T12:54:05.989Z,64.43
2024-01-03T12:56:33.716Z,64.43
2024-01-03T12:59:01.379Z,63.78
2024-01-03T13:01:30.277Z,63.51
2024-01-03T13:03:57.844Z,63.68
2024-01-03T13:06:25.590Z,63.29
2024-01-03T13:08:55.007Z,63.34
2024-01-03T13:11:22.654Z,63.43
2024-01-03T13:13:50.313Z,63.68
2024-01-03T13:16:19.211Z,63.37
2024-01-03T13:18:46.988Z,63.42
2024-01-03T13:21:14.753Z,63.41
2024-01-03T13:23:43.544Z,63.67
2024-01-03T13:26:11.187Z,63.45
2024-01-03T13:28:38.943Z,63.06
2024-01-03T13:31:08.081Z,62.68
2024-01-03T13:33:35.916Z,62.64
2024-01-03T13:36:03.760Z,62.75
2024-01-03T13:38:32.954Z,62.90
2024-01-03T13:41:00.645Z,62.48
2024-01-03T13:43:28.189Z,62.30
2024-01-03T13:45:57.199Z,62.33
2024-01-03T13:48:25.026Z,62.41
2024-01-03T13:50:52.843Z,62.80
2024-01-03T13:53:22.225Z,63.08
2024-01-03T13:55:49.981Z,63.18
2024-01-03T13:58:17.592Z,63.18
2024-01-03T14:00:46.464Z,63.10
2024-01-03T14:03:14.493Z,63.28
2024-01-03T14:05:42.422Z,63.18
2024-01-03T14:08:11.370Z,63.43
2024-01-03T14:10:39.015Z,63.57
2024-01-03T14:13:06.755Z,63.46
2024-01-03T14:15:35.873Z,63.50
2024-01-03T14:18:03.694Z,63.49
2024-01-03T14:20:31.832Z,63.51
2024-01-03T14:23:01.523Z,63.75
2024-01-03T14:25:29.130Z,64.03
2024-01-03T14:27:56.840Z,64.30
2024-01-03T14:30:25.831Z,64.27
2024-01-03T14:32:53.836Z,64.42
2024-01-03T14:35:22.384Z,64.72
2024-01-03T14:37:51.385Z,64.67
2024-01-03T14:40:19.048Z,64.84
2024-01-03T14:42:46.718Z,64.87
2024-01-03T14:45:15.540Z,65.25
2024-01-03T14:47:43.265Z,65.39
2024-01-03T14:50:11.019Z,65.54
2024-01-03T14:52:40.029Z,65.54
2024-01-03T14:55:07.880Z,65.76
2024-01-03T14:57:35.439Z,66.41
2024-01-03T15:00:04.382Z,66.93
2024-01-03T15:02:32.074Z,67.34
2024-01-03T15:04:59.804Z,67.51
2024-01-03T15:07:28.840Z,67.90
2024-01-03T15:09:56.629Z,68.03
2024-01-03T15:12:24.273Z,68.32
2024-01-03T15:14:53.481Z,68.55
2024-01-03T15:17:21.017Z,68.88
2024-01-03T15:19:48.686Z,68.98
2024-01-03T15:22:17.664Z,69.26
2024-01-03T15:24:45.473Z,69.68
2024-01-03T15:27:13.183Z,69.93
2024-01-03T15:29:42.156Z,70.35
2024-01-03T15:32:09.885Z,70.88
2024-01-03T15:34:41.544Z,71.23
2024-01-03T15:37:12.427Z,71.59
2024-01-03T15:39:40.556Z,71.98
2024-01-03T15:42:10.758Z,72.34
2024-01-03T15:44:38.558Z,72.59
2024-01-03T15:47:06.103Z,72.83
2024-01-03T15:49:34.967Z,72.95
2024-01-03T15:52:02.643Z,73.23
2024-01-03T15:54:40.727Z,73.43
2024-01-03T15:57:14.997Z,73.56
2024-01-03T15:59:42.845Z,73.83
2024-01-03T16:02:10.587Z,74.16
2024-01-03T16:04:39.505Z,74.21
2024-01-03T16:07:07.047Z,74.40
2024-01-03T16:09:34.600Z,74.51
2024-01-03T16:12:03.485Z,74.59
2024-01-03T16:14:31.569Z,74.68
2024-01-03T16:16:59.112Z,74.69
2024-01-03T16:19:28.366Z,74.75
2024-01-03T16:21:56.308Z,74.81
2024-01-03T16:24:26.088Z,74.85
2024-01-03T16:26:53.714Z,74.79
2024-01-03T16:29:21.413Z,74.85
2024-01-03T16:31:50.303Z,74.80
2024-01-03T16:34:18.060Z,74.82
2024-01-03T16:36:46.136Z,74.84
2024-01-03T16:39:15.019Z,74.90
2024-01-03T16:41:42.722Z,75.03
2024-01-03T16:44:10.161Z,75.09
2024-01-03T16:46:38.940Z,75.15
2024-01-03T16:49:06.603Z,75.14
2024-01-03T16:51:34.368Z,75.21
2024-01-03T16:54:03.254Z,75.20
2024-01-03T16:56:31.039Z,75.11
2024-01-03T16:58:58.883Z,75.09
2024-01-03T17:01:28.025Z,74.97
2024-01-03T17:03:55.665Z,74.98
2024-01-03T17:06:23.302Z,75.13
2024-01-03T17:08:52.226Z,75.14
2024-01-03T17:11:19.755Z,75.16
2024-01-03T17:13:47.319Z,75.15
2024-01-03T17:16:16.310Z,75.22
2024-01-03T17:18:44.067Z,75.23
2024-01-03T17:21:11.862Z,75.37
2024-01-03T17:23:41.159Z,75.37
2024-01-03T17:26:08.816Z,75.38
2024-01-03T17:28:36.469Z,75.43
2024-01-03T17:31:05.268Z,75.27
2024-01-03T17:33:33.001Z,75.24
2024-01-03T17:36:00.714Z,75.29
2024-01-03T17:38:29.880Z,75.26
2024-01-03T17:40:57.526Z,75.20
2024-01-03T17:43:25.504Z,75.24
2024-01-03T17:45:54.279Z,75.21
2024-01-03T17:48:22.000Z,75.17
2024-01-03T17:50:49.740Z,75.21
2024-01-03T17:53:18.720Z,75.20
2024-01-03T17:55:46.280Z,75.19
2024-01-03T17:58:13.841Z,75.18
2024-01-03T18:00:42.602Z,75.23
2024-01-03T18:03:10.353Z,75.19
2024-01-03T18:05:38.147Z,75.13
2024-01-03T18:08:07.276Z,75.03
2024-01-03T18:10:35.001Z,75.08
2024-01-03T18:13:02.647Z,74.97
2024-01-03T18:15:31.447Z,74.86
2024-01-03T18:17:59.222Z,74.74
2024-01-03T18:20:27.008Z,74.62
2024-01-03T18:22:55.863Z,74.36
2024-01-03T18:25:23.827Z,74.25
2024-01-03T18:27:51.539Z,74.11
2024-01-03T18:30:20.652Z,74.16
2024-01-03T18:32:48.445Z,73.99
2024-01-03T18:35:16.212Z,73.83
2024-01-03T18:37:45.000Z,73.78
2024-01-03T18:40:12.564Z,73.68
2024-01-03T18:42:40.125Z,73.62
2024-01-03T18:45:09.514Z,73.59
2024-01-03T18:47:37.341Z,73.56
2024-01-03T18:50:07.442Z,73.38
2024-01-03T18:52:35.181Z,73.24
2024-01-03T18:55:02.747Z,73.32
2024-01-03T18:57:31.626Z,73.37
2024-01-03T18:59:59.224Z,73.37
2024-01-03T19:02:26.894Z,73.28
2024-01-03T19:04:56.439Z,73.11
2024-01-03T19:07:24.231Z,73.03
2024-01-03T19:09:54.238Z,72.91
2024-01-03T19:12:21.894Z,72.94
2024-01-03T19:14:49.499Z,73.00
2024-01-03T19:17:18.362Z,72.98
2024-01-03T19:19:46.000Z,73.05
2024-01-03T19:22:13.771Z,73.12
2024-01-03T19:24:42.664Z,73.02
2024-01-03T19:27:10.789Z,72.81
2024-01-03T19:29:38.513Z,72.69
2024-01-03T19:32:07.284Z,72.56
2024-01-03T19:34:34.889Z,72.53
2024-01-03T19:37:02.700Z,72.38
2024-01-03T19:39:31.508Z,72.14
2024-01-03T19:41:59.077Z,72.00
2024-01-03T19:44:26.775Z,71.94
2024-01-03T19:46:56.127Z,71.98
2024-01-03T19:49:23.847Z,71.96
2024-01-03T19:51:54.020Z,71.93
2024-01-03T19:54:21.589Z,71.93
2024-01-03T19:56:49.531Z,71.76
2024-01-03T19:59:19.070Z,71.42
2024-01-03T20:01:47.608Z,71.35
2024-01-03T20:04:16.697Z,71.23
2024-01-03T20:06:45.005Z,71.18
2024-01-03T20:09:15.029Z,71.14
2024-01-03T20:11:42.709Z,70.95
2024-01-03T20:14:10.116Z,70.95
2024-01-03T20:16:38.903Z,70.96
2024-01-03T20:19:06.645Z,70.84
2024-01-03T20:21:34.432Z,70.86
2024-01-03T20:24:03.281Z,70.82
2024-01-03T20:26:31.010Z,70.78
2024-01-03T20:28:58.546Z,70.76
2024-01-03T20:31:27.339Z,70.83
2024-01-03T20:33:55.472Z,70.76
2024-01-03T20:36:23.325Z,70.80
2024-01-03T20:38:52.516Z,70.74
2024-01-03T20:41:21.476Z,70.69
2024-01-03T20:43:51.395Z,70.63
2024-01-03T20:46:18.951Z,70.68
2024-01-03T20:48:46.817Z,70.63
2024-01-03T20:51:15.834Z,70.54
2024-01-03T20:53:43.886Z,70.53
2024-01-03T20:56:11.632Z,70.57
2024-01-03T20:58:40.637Z,70.50
2024-01-03T21:01:08.538Z,70.46
2024-01-03T21:03:36.263Z,70.45
2024-01-03T21:06:05.069Z,70.39
2024-01-03T21:08:32.729Z,70.37
2024-01-03T21:11:01.708Z,70.36
2024-01-03T21:13:32.188Z,70.34
2024-01-03T21:15:59.893Z,70.24
2024-01-03T21:18:27.641Z,70.44
2024-01-03T21:20:56.621Z,70.43
2024-01-03T21:23:24.483Z,70.43
2024-01-03T21:25:52.168Z,70.43
2024-01-03T21:28:21.065Z,70.50
2024-01-03T21:30:48.639Z,70.54
2024-01-03T21:33:16.257Z,70.41
2024-01-03T21:35:45.221Z,70.41
2024-01-03T21:38:12.844Z,70.40
2024-01-03T21:40:40.488Z,70.29
2024-01-03T21:43:09.288Z,70.35
2024-01-03T21:45:36.945Z,70.36
2024-01-03T21:48:04.644Z,70.23
2024-01-03T21:50:33.662Z,70.16
2024-01-03T21:53:01.156Z,70.09
2024-01-03T21:55:28.717Z,70.14
2024-01-03T21:57:57.815Z,70.05
2024-01-03T22:00:25.525Z,69.97
2024-01-03T22:02:53.420Z,69.98
2024-01-03T22:05:22.596Z,69.84
2024-01-03T22:07:50.301Z,69.89
2024-01-03T22:10:17.861Z,69.87
2024-01-03T22:12:46.649Z,69.93
2024-01-03T22:15:14.220Z,69.85
2024-01-03T22:17:42.117Z,69.91
2024-01-03T22:20:11.165Z,69.80
2024-01-03T22:22:38.733Z,69.52
2024-01-03T22:25:06.286Z,69.70
2024-01-03T22:27:35.179Z,69.69
2024-01-03T22:30:02.791Z,69.70
2024-01-03T22:32:30.680Z,69.70
2024-01-03T22:35:00.118Z,69.76
2024-01-03T22:37:27.872Z,69.72
2024-01-03T22:39:57.801Z,69.78
2024-01-03T22:42:25.342Z,69.83
2024-01-03T22:44:52.997Z,69.78
2024-01-03T22:47:22.001Z,69.71
2024-01-03T22:49:49.613Z,69.78
2024-01-03T22:52:17.321Z,69.77
2024-01-03T22:54:46.526Z,69.74
2024-01-03T22:57:14.121Z,69.85
2024-01-03T22:59:41.803Z,69.82
2024-01-03T23:02:10.837Z,69.83
2024-01-03T23:04:38.406Z,69.67
2024-01-03T23:07:08.300Z,69.73
2024-01-03T23:09:38.429Z,69.79
2024-01-03T23:12:06.123Z,69.86
2024-01-03T23:14:34.117Z,69.87
2024-01-03T23:17:14.668Z,69.83
2024-01-03T23:19:49.325Z,69.77
2024-01-03T23:22:17.265Z,69.82
2024-01-03T23:24:44.878Z,69.78
2024-01-03T23:27:13.789Z,69.85
2024-01-03T23:29:41.519Z,69.80
2024-01-03T23:32:09.224Z,69.86
2024-01-03T23:34:38.427Z,69.94
2024-01-03T23:37:06.153Z,69.92
2024-01-03T23:39:33.824Z,69.92
2024-01-03T23:42:02.752Z,70.02
2024-01-03T23:44:30.395Z,70.17
2024-01-03T23:46:58.129Z,70.31
2024-01-03T23:49:27.240Z,70.42
2024-01-03T23:51:54.997Z,70.43
2024-01-03T23:54:22.981Z,70.47
2024-01-03T23:56:51.787Z,70.48
2024-01-03T23:59:19.406Z,70.44
